Time;durP1;ratioP1;P1;durP2;ratioP2;P2;SDS_P1;SDS_P2;PMS_P1;PMS_P2;Temp;Humidity;BMP_temperature;BMP_pressure;BME280_temperature;BME280_humidity;BME280_pressure;Samples;Min_cycle;Max_cycle;Signal;HPM_P1;HPM_P2
2022/05/01 00:00:46;;;;;;;4.85;3.78;;;7.60;99.90;;;;;;4998552;28;20038;-66
2022/05/01 00:03:30;;;;;;;8.75;5.90;;;7.50;99.90;;;;;;4999379;28;20858;-66
2022/05/01 00:06:01;;;;;;;5.43;4.82;;;7.50;99.90;;;;;;4999347;28;20152;-66
2022/05/01 00:08:27;;;;;;;9.18;6.55;;;7.50;99.90;;;;;;5000891;28;20477;-66
2022/05/01 00:10:53;;;;;;;7.28;5.60;;;7.50;99.90;;;;;;5004475;28;20064;-66
2022/05/01 00:13:19;;;;;;;8.10;5.70;;;7.50;99.90;;;;;;5006846;28;22111;-66
2022/05/01 00:15:45;;;;;;;8.00;5.40;;;7.50;99.90;;;;;;5000164;28;20080;-66
2022/05/01 00:18:10;;;;;;;7.93;5.97;;;7.30;99.90;;;;;;5005455;28;20045;-66
2022/05/01 00:20:36;;;;;;;9.32;6.68;;;7.50;99.90;;;;;;5015379;28;20091;-66
2022/05/01 00:23:02;;;;;;;9.95;5.75;;;7.40;99.90;;;;;;5008996;28;20049;-66
2022/05/01 00:25:28;;;;;;;7.80;5.63;;;7.30;99.90;;;;;;5000948;28;20496;-66
2022/05/01 00:27:55;;;;;;;7.75;5.70;;;7.40;99.90;;;;;;5004762;28;20057;-66
2022/05/01 00:30:21;;;;;;;8.60;5.53;;;7.30;99.90;;;;;;5005076;28;20402;-66
2022/05/01 00:38:15;;;;;;;7.10;5.88;;;7.30;99.90;;;;;;5007996;28;20073;-67
2022/05/01 00:40:40;;;;;;;7.85;5.20;;;7.30;99.90;;;;;;5005940;28;20041;-66
2022/05/01 00:43:06;;;;;;;6.82;5.68;;;7.20;99.90;;;;;;5005942;28;20100;-66
2022/05/01 00:45:32;;;;;;;8.63;5.32;;;7.20;99.90;;;;;;5003378;28;20074;-66
2022/05/01 00:47:58;;;;;;;8.00;5.40;;;7.10;99.90;;;;;;5005388;28;20045;-67
2022/05/01 00:50:24;;;;;;;8.30;6.20;;;7.20;99.90;;;;;;5005028;28;20152;-66
2022/05/01 00:52:52;;;;;;;12.35;6.43;;;7.10;99.90;;;;;;5015935;28;20045;-64
2022/05/01 00:55:18;;;;;;;8.07;5.22;;;7.10;99.90;;;;;;5011532;28;20045;-64
2022/05/01 00:57:47;;;;;;;8.52;5.80;;;7.00;99.90;;;;;;5006137;28;20052;-64
2022/05/01 01:00:13;;;;;;;7.47;5.80;;;6.90;99.90;;;;;;5005162;28;20045;-64
2022/05/01 01:02:39;;;;;;;8.80;6.75;;;6.90;99.90;;;;;;5004177;28;20053;-64
2022/05/01 01:05:06;;;;;;;8.40;5.75;;;6.80;99.90;;;;;;5011257;28;20788;-64
2022/05/01 01:07:33;;;;;;;7.40;5.20;;;6.70;99.90;;;;;;5014956;28;20045;-64
2022/05/01 01:09:59;;;;;;;10.27;5.78;;;6.60;99.90;;;;;;5002419;28;20057;-64
2022/05/01 01:15:10;;;;;;;12.05;6.82;;;6.60;99.90;;;;;;4996522;28;20129;-64
2022/05/01 01:17:41;;;;;;;8.65;6.95;;;6.50;99.90;;;;;;5007317;28;20139;-64
2022/05/01 01:20:08;;;;;;;12.55;6.55;;;6.50;99.90;;;;;;5004639;28;20129;-64
2022/05/01 01:22:36;;;;;;;7.15;5.45;;;6.40;99.90;;;;;;5009299;28;20041;-64
2022/05/01 01:25:02;;;;;;;8.93;6.05;;;6.40;99.90;;;;;;5011191;28;20041;-64
2022/05/01 01:27:27;;;;;;;8.63;6.70;;;6.30;99.90;;;;;;5004124;28;20046;-65
2022/05/01 01:32:39;;;;;;;10.30;5.93;;;6.30;99.90;;;;;;5004261;28;20430;-64
2022/05/01 01:35:06;;;;;;;10.40;6.20;;;6.30;99.90;;;;;;5004035;28;20069;-64
2022/05/01 01:37:34;;;;;;;9.77;6.40;;;6.30;99.90;;;;;;5004175;28;20042;-64
2022/05/01 01:40:00;;;;;;;8.40;5.85;;;6.20;99.90;;;;;;5004414;28;20045;-64
2022/05/01 01:42:29;;;;;;;12.75;6.88;;;6.10;99.90;;;;;;5003540;28;20108;-64
2022/05/01 01:44:56;;;;;;;11.98;7.07;;;6.10;99.90;;;;;;5003091;28;20041;-64
2022/05/01 01:47:22;;;;;;;9.55;6.53;;;6.00;99.90;;;;;;5002660;28;20049;-64
2022/05/01 01:49:47;;;;;;;10.55;6.10;;;5.90;99.90;;;;;;5003333;28;20135;-64
2022/05/01 01:52:13;;;;;;;11.82;6.55;;;5.90;99.90;;;;;;5006569;28;20045;-64
2022/05/01 01:54:38;;;;;;;10.23;6.25;;;5.90;99.90;;;;;;5012946;28;20682;-64
2022/05/01 01:57:05;;;;;;;8.10;5.68;;;5.90;99.90;;;;;;5010207;28;20034;-64
2022/05/01 01:59:31;;;;;;;6.65;5.65;;;5.80;99.90;;;;;;5005929;28;20154;-64
2022/05/01 02:01:57;;;;;;;8.23;6.07;;;5.70;99.90;;;;;;5008080;28;20128;-64
2022/05/01 02:04:23;;;;;;;9.23;6.03;;;5.70;99.90;;;;;;5010948;28;20522;-64
2022/05/01 02:06:48;;;;;;;9.65;6.53;;;5.70;99.90;;;;;;5005321;28;20073;-64
2022/05/01 02:09:15;;;;;;;8.43;5.55;;;5.70;99.90;;;;;;5007218;28;20153;-64
2022/05/01 02:11:41;;;;;;;13.13;7.10;;;5.70;99.90;;;;;;5002337;28;20080;-64
2022/05/01 02:14:10;;;;;;;8.85;6.45;;;5.70;99.90;;;;;;5012614;28;20174;-65
2022/05/01 02:16:36;;;;;;;10.27;7.38;;;5.60;99.90;;;;;;5006227;28;20694;-64
2022/05/01 02:19:01;;;;;;;11.20;7.63;;;5.60;99.90;;;;;;5006348;28;20049;-64
2022/05/01 02:21:36;;;;;;;9.98;7.50;;;5.60;99.90;;;;;;5005591;28;20544;-64
2022/05/01 02:24:06;;;;;;;12.57;7.47;;;5.60;99.90;;;;;;5006243;28;20034;-64
2022/05/01 02:26:32;;;;;;;11.30;7.00;;;5.60;99.90;;;;;;5008726;28;20124;-64
2022/05/01 02:28:59;;;;;;;11.55;6.30;;;5.60;99.90;;;;;;5001488;28;20051;-64
2022/05/01 02:31:26;;;;;;;11.18;7.70;;;5.60;99.90;;;;;;5002791;28;20049;-64
2022/05/01 02:33:52;;;;;;;9.55;6.35;;;5.60;99.90;;;;;;5002092;28;20053;-64
2022/05/01 02:36:18;;;;;;;13.40;7.75;;;5.60;99.90;;;;;;5003568;28;20046;-64
2022/05/01 02:38:44;;;;;;;12.95;7.22;;;5.60;99.90;;;;;;5010861;28;20041;-64
2022/05/01 02:41:10;;;;;;;8.27;6.25;;;5.50;99.90;;;;;;5017159;28;20053;-64
2022/05/01 02:43:35;;;;;;;16.90;8.45;;;5.50;99.90;;;;;;5002015;28;20158;-64
2022/05/01 02:46:01;;;;;;;8.57;6.47;;;5.50;99.90;;;;;;5001086;28;20187;-64
2022/05/01 02:48:26;;;;;;;11.30;6.50;;;5.50;99.90;;;;;;5002457;28;20049;-64
2022/05/01 02:50:52;;;;;;;9.32;6.70;;;5.40;99.90;;;;;;5002535;28;20152;-65
2022/05/01 02:53:17;;;;;;;11.57;7.55;;;5.40;99.90;;;;;;5000483;28;20188;-65
2022/05/01 02:55:43;;;;;;;12.50;6.90;;;5.40;99.90;;;;;;5009292;28;20056;-64
2022/05/01 02:58:09;;;;;;;11.85;6.10;;;5.30;99.90;;;;;;5005012;28;20111;-64
2022/05/01 03:00:34;;;;;;;8.88;7.40;;;5.30;99.90;;;;;;5004530;28;20846;-64
2022/05/01 03:03:00;;;;;;;11.38;6.80;;;5.20;99.90;;;;;;5003529;28;20056;-65
2022/05/01 03:05:26;;;;;;;8.57;6.07;;;5.20;99.90;;;;;;5007456;28;20045;-64
2022/05/01 03:07:55;;;;;;;10.05;6.13;;;5.20;99.90;;;;;;5011045;28;20136;-65
2022/05/01 03:10:22;;;;;;;9.32;5.70;;;5.20;99.90;;;;;;5002690;28;20089;-65
2022/05/01 03:12:47;;;;;;;9.45;6.38;;;5.20;99.90;;;;;;5002616;28;20164;-65
2022/05/01 03:15:13;;;;;;;11.85;7.07;;;5.20;99.90;;;;;;5001166;28;20049;-65
2022/05/01 03:23:07;;;;;;;9.63;6.63;;;5.10;99.90;;;;;;5001146;28;20582;-65
2022/05/01 03:25:33;;;;;;;12.35;7.97;;;5.10;99.90;;;;;;5007629;28;20045;-64
2022/05/01 03:27:59;;;;;;;14.68;7.45;;;5.00;99.90;;;;;;5013719;28;20049;-64
2022/05/01 03:30:25;;;;;;;11.02;7.32;;;5.00;99.90;;;;;;5002427;28;20846;-64
2022/05/01 03:32:51;;;;;;;14.18;6.70;;;5.10;99.90;;;;;;5001624;28;20045;-65
2022/05/01 03:35:17;;;;;;;10.23;6.38;;;5.00;99.90;;;;;;5000019;28;20049;-64
2022/05/01 03:37:43;;;;;;;11.35;5.80;;;4.90;99.90;;;;;;5000193;28;20056;-64
2022/05/01 03:40:14;;;;;;;12.13;6.43;;;4.90;99.90;;;;;;5006931;28;20072;-65
2022/05/01 03:42:39;;;;;;;15.60;7.47;;;5.00;99.90;;;;;;5012881;28;20060;-64
2022/05/01 03:45:06;;;;;;;10.07;7.05;;;4.90;99.90;;;;;;5002646;28;20037;-64
2022/05/01 03:47:32;;;;;;;10.57;6.50;;;4.90;99.90;;;;;;5001881;28;20049;-64
2022/05/01 03:49:58;;;;;;;10.88;6.57;;;4.90;99.90;;;;;;4999722;28;20060;-65
2022/05/01 03:52:24;;;;;;;13.18;8.20;;;4.90;99.90;;;;;;5001506;28;20045;-64
2022/05/01 03:54:49;;;;;;;9.43;6.32;;;4.80;99.90;;;;;;5004384;28;20112;-64
2022/05/01 03:57:15;;;;;;;8.18;5.82;;;4.80;99.90;;;;;;5003359;28;20037;-65
2022/05/01 03:59:40;;;;;;;11.13;7.78;;;4.90;99.90;;;;;;5011702;28;20113;-65
2022/05/01 04:02:06;;;;;;;11.48;8.45;;;4.80;99.90;;;;;;5008278;28;20057;-65
2022/05/01 04:04:31;;;;;;;8.05;6.43;;;4.80;99.90;;;;;;5010364;28;20149;-65
2022/05/01 04:06:57;;;;;;;9.77;7.35;;;4.80;99.90;;;;;;5005582;28;20056;-65
2022/05/01 04:09:24;;;;;;;9.57;6.35;;;4.80;99.90;;;;;;5004886;28;20814;-65
2022/05/01 04:11:51;;;;;;;9.70;5.97;;;4.70;99.90;;;;;;5005012;28;20140;-65
2022/05/01 04:14:18;;;;;;;9.65;6.55;;;4.70;99.90;;;;;;5005565;28;20099;-65
2022/05/01 04:16:43;;;;;;;10.00;6.57;;;4.70;99.90;;;;;;5004669;28;20052;-65
2022/05/01 04:19:11;;;;;;;11.75;7.40;;;4.70;99.90;;;;;;5004467;28;20041;-65
2022/05/01 04:21:37;;;;;;;9.45;6.15;;;4.70;99.90;;;;;;5005795;28;20065;-64
2022/05/01 04:24:03;;;;;;;11.25;7.57;;;4.80;99.90;;;;;;5011860;28;20827;-64
2022/05/01 04:26:29;;;;;;;9.38;6.13;;;4.70;99.90;;;;;;5012154;28;20049;-64
2022/05/01 04:31:39;;;;;;;12.60;7.57;;;4.70;99.90;;;;;;5004453;28;20185;-66
2022/05/01 04:34:04;;;;;;;9.70;6.72;;;4.70;99.90;;;;;;5010026;28;20791;-64
2022/05/01 04:36:31;;;;;;;11.23;6.78;;;4.70;99.90;;;;;;5012984;28;20049;-65
2022/05/01 04:38:56;;;;;;;10.15;6.82;;;4.70;99.90;;;;;;5004938;28;20172;-65
2022/05/01 04:41:22;;;;;;;12.10;8.07;;;4.70;99.90;;;;;;5005278;28;20148;-65
2022/05/01 04:43:47;;;;;;;12.93;7.18;;;4.70;99.90;;;;;;5004634;28;20747;-65
2022/05/01 04:46:14;;;;;;;8.77;6.38;;;4.80;99.90;;;;;;5006147;28;21019;-65
2022/05/01 04:48:39;;;;;;;10.75;5.90;;;4.80;99.90;;;;;;5007840;28;20071;-65
2022/05/01 04:51:05;;;;;;;9.90;6.80;;;4.70;99.90;;;;;;5007299;28;20132;-65
2022/05/01 04:53:30;;;;;;;9.85;6.20;;;4.80;99.90;;;;;;5003400;28;20041;-66
2022/05/01 04:57:05;;;;;;;10.05;5.95;;;4.80;99.90;;;;;;5008596;28;20055;-66
2022/05/01 04:58:41;;;;;;;12.77;7.15;;;4.90;99.90;;;;;;5016130;28;20095;-66
2022/05/01 05:01:07;;;;;;;11.13;8.93;;;4.90;99.90;;;;;;5002769;28;20057;-66
2022/05/01 05:03:32;;;;;;;13.32;7.07;;;5.00;99.90;;;;;;5004074;28;20054;-66
2022/05/01 05:05:58;;;;;;;11.05;6.45;;;5.10;99.90;;;;;;5003637;28;20800;-66
2022/05/01 05:11:08;;;;;;;8.85;6.63;;;5.20;99.90;;;;;;5002338;28;20060;-66
2022/05/01 05:13:35;;;;;;;11.55;7.07;;;5.20;99.90;;;;;;5001274;28;20182;-66
2022/05/01 05:16:01;;;;;;;12.75;7.75;;;5.30;99.90;;;;;;5000611;28;20856;-66
2022/05/01 05:18:27;;;;;;;13.27;7.78;;;5.40;99.90;;;;;;5000441;28;20119;-66
2022/05/01 05:20:53;;;;;;;13.88;7.50;;;5.50;99.90;;;;;;5001090;28;20180;-66
2022/05/01 05:23:18;;;;;;;12.43;8.00;;;5.50;99.90;;;;;;5008776;28;20858;-66
2022/05/01 05:25:44;;;;;;;11.48;6.88;;;5.50;99.90;;;;;;5007810;28;20056;-64
2022/05/01 05:28:09;;;;;;;9.98;7.03;;;5.70;99.90;;;;;;5005594;28;20052;-64
2022/05/01 05:30:38;;;;;;;12.25;7.47;;;5.80;99.90;;;;;;5001468;28;20048;-64
2022/05/01 05:33:04;;;;;;;10.50;8.00;;;5.90;99.90;;;;;;5001240;28;20456;-65
2022/05/01 05:35:30;;;;;;;11.68;6.65;;;6.00;99.90;;;;;;5000779;28;20042;-64
2022/05/01 05:37:55;;;;;;;12.40;9.13;;;6.10;99.90;;;;;;4999501;28;20041;-64
2022/05/01 05:40:21;;;;;;;12.70;8.68;;;6.20;99.90;;;;;;5000028;28;20111;-64
2022/05/01 05:42:46;;;;;;;11.98;8.23;;;6.40;99.90;;;;;;5004125;28;20088;-64
2022/05/01 05:45:13;;;;;;;13.82;8.32;;;6.50;99.90;;;;;;5014349;28;20144;-64
2022/05/01 05:47:39;;;;;;;11.95;7.75;;;6.60;99.90;;;;;;5005078;28;20048;-64
2022/05/01 05:50:05;;;;;;;10.75;7.97;;;6.70;99.90;;;;;;4996301;28;20046;-64
2022/05/01 05:52:32;;;;;;;10.07;7.35;;;6.80;99.90;;;;;;5001204;28;20740;-64
2022/05/01 05:54:57;;;;;;;12.45;8.07;;;7.00;99.90;;;;;;5000745;28;20100;-64
2022/05/01 05:57:23;;;;;;;12.85;7.18;;;7.10;99.90;;;;;;5003102;28;20513;-64
2022/05/01 05:59:48;;;;;;;13.20;8.18;;;7.20;99.90;;;;;;5013004;28;20076;-65
2022/05/01 06:02:14;;;;;;;13.05;8.43;;;7.30;99.90;;;;;;5002498;28;20045;-64
2022/05/01 06:04:41;;;;;;;11.57;7.82;;;7.40;99.90;;;;;;5001000;28;20057;-64
2022/05/01 06:07:06;;;;;;;12.65;8.27;;;7.50;99.90;;;;;;5000012;28;20137;-64
2022/05/01 06:09:32;;;;;;;11.45;7.18;;;7.60;99.90;;;;;;4999902;28;20058;-65
2022/05/01 06:11:58;;;;;;;12.38;8.15;;;7.70;99.90;;;;;;4998816;28;20782;-64
2022/05/01 06:14:24;;;;;;;15.02;8.93;;;7.80;99.90;;;;;;5000354;28;20137;-64
2022/05/01 06:16:49;;;;;;;9.32;6.30;;;8.00;99.90;;;;;;4998933;28;20967;-64
2022/05/01 06:19:15;;;;;;;10.57;7.40;;;8.00;99.90;;;;;;4999884;28;20592;-65
2022/05/01 06:21:40;;;;;;;10.50;6.88;;;8.10;99.90;;;;;;4999635;28;20053;-64
2022/05/01 06:24:07;;;;;;;9.50;6.38;;;8.20;99.90;;;;;;4999666;28;20049;-65
2022/05/01 06:26:33;;;;;;;10.13;6.22;;;8.30;99.90;;;;;;5005935;28;20056;-64
2022/05/01 06:28:59;;;;;;;8.55;5.97;;;8.30;99.90;;;;;;5010001;28;20112;-64
2022/05/01 06:31:25;;;;;;;8.63;6.72;;;8.40;99.90;;;;;;5000459;28;20865;-64
2022/05/01 06:33:51;;;;;;;9.75;6.97;;;8.50;99.90;;;;;;4998656;28;20072;-64
2022/05/01 06:36:17;;;;;;;9.00;6.57;;;8.60;99.90;;;;;;4996278;28;20045;-64
2022/05/01 06:38:43;;;;;;;9.05;6.72;;;8.70;99.90;;;;;;4998213;28;20046;-64
2022/05/01 06:41:09;;;;;;;7.53;6.50;;;8.70;99.90;;;;;;4993933;28;20448;-64
2022/05/01 06:43:35;;;;;;;11.20;7.03;;;8.80;99.90;;;;;;4994462;28;20053;-65
2022/05/01 06:46:00;;;;;;;10.98;6.53;;;8.80;99.90;;;;;;4996809;28;20037;-65
2022/05/01 06:48:26;;;;;;;5.78;4.85;;;9.10;99.90;;;;;;4996185;28;20149;-64
2022/05/01 06:50:52;;;;;;;8.38;5.53;;;9.80;99.90;;;;;;4997196;28;20052;-65
2022/05/01 06:53:17;;;;;;;8.18;6.70;;;11.20;99.90;;;;;;4996076;28;20073;-65
2022/05/01 06:55:43;;;;;;;6.38;5.65;;;12.50;99.90;;;;;;5002615;28;20041;-65
2022/05/01 06:58:09;;;;;;;7.53;6.03;;;13.40;99.90;;;;;;4999141;28;20128;-65
2022/05/01 07:00:34;;;;;;;7.50;5.07;;;14.40;99.90;;;;;;4996042;28;20208;-65
2022/05/01 07:03:00;;;;;;;6.65;4.95;;;15.10;99.90;;;;;;4998182;28;20099;-65
2022/05/01 07:05:26;;;;;;;7.57;4.95;;;16.00;99.90;;;;;;4996213;28;20049;-65
2022/05/01 07:07:52;;;;;;;8.82;4.50;;;16.80;99.90;;;;;;4997289;28;20232;-64
2022/05/01 07:10:18;;;;;;;4.97;3.85;;;17.40;99.90;;;;;;4999802;28;20539;-64
2022/05/01 07:12:44;;;;;;;4.55;3.55;;;17.90;99.90;;;;;;4997479;28;20131;-64
2022/05/01 07:15:10;;;;;;;6.38;4.15;;;18.40;99.90;;;;;;4997368;28;20042;-65
2022/05/01 07:17:36;;;;;;;4.18;3.47;;;18.80;99.90;;;;;;4995722;28;20104;-64
2022/05/01 07:20:02;;;;;;;3.97;3.22;;;18.70;99.90;;;;;;4998562;28;20737;-65
2022/05/01 07:22:28;;;;;;;4.93;3.42;;;18.30;99.90;;;;;;4997161;28;20600;-65
2022/05/01 07:24:54;;;;;;;5.55;3.20;;;17.30;99.60;;;;;;5003459;28;20124;-65
2022/05/01 07:27:20;;;;;;;4.32;3.30;;;17.30;99.90;;;;;;4998930;28;20510;-64
2022/05/01 07:29:45;;;;;;;3.10;2.78;;;17.10;99.90;;;;;;4999529;28;20041;-65
2022/05/01 07:32:11;;;;;;;3.85;3.53;;;17.30;99.20;;;;;;4996155;28;20596;-65
2022/05/01 07:34:37;;;;;;;4.07;3.20;;;16.60;97.00;;;;;;4997132;28;20061;-65
2022/05/01 07:37:03;;;;;;;3.95;3.40;;;16.90;98.10;;;;;;4996260;28;20041;-65
2022/05/01 07:39:29;;;;;;;3.20;2.50;;;17.70;97.80;;;;;;4998688;28;20053;-65
2022/05/01 07:41:55;;;;;;;4.03;2.95;;;18.10;96.90;;;;;;4990736;28;20080;-65
2022/05/01 07:44:20;;;;;;;4.47;3.08;;;18.20;94.10;;;;;;4996514;28;20103;-65
2022/05/01 07:46:46;;;;;;;3.08;2.67;;;18.50;95.00;;;;;;4996513;28;20763;-65
2022/05/01 07:49:12;;;;;;;5.43;2.80;;;19.00;94.60;;;;;;4996595;28;20073;-65
2022/05/01 07:51:38;;;;;;;4.88;3.00;;;19.30;93.70;;;;;;4995729;28;20037;-65
2022/05/01 07:54:04;;;;;;;3.55;2.45;;;18.70;92.00;;;;;;4997290;28;20805;-65
2022/05/01 07:56:31;;;;;;;2.97;2.65;;;18.90;91.30;;;;;;4995339;28;20709;-65
2022/05/01 07:58:57;;;;;;;3.53;2.47;;;18.30;91.60;;;;;;4997750;28;20052;-65
2022/05/01 08:01:24;;;;;;;4.50;2.50;;;18.50;91.60;;;;;;4996749;28;20049;-65
2022/05/01 08:06:35;;;;;;;3.47;2.50;;;16.60;91.20;;;;;;5001099;28;20119;-65
2022/05/01 08:09:01;;;;;;;2.75;2.53;;;15.80;92.10;;;;;;4997793;28;20057;-64
2022/05/01 08:11:27;;;;;;;2.63;2.08;;;14.90;92.20;;;;;;4999827;28;20049;-64
2022/05/01 08:13:52;;;;;;;4.80;2.60;;;14.50;93.40;;;;;;4993205;28;20038;-64
2022/05/01 08:16:18;;;;;;;3.85;2.90;;;14.50;93.30;;;;;;4991006;28;20150;-64
2022/05/01 08:21:36;;;;;;;4.00;3.60;;;13.90;92.40;;;;;;4641098;28;9999888;-64
2022/05/01 08:24:02;;;;;;;3.50;3.20;;;13.60;93.20;;;;;;4988619;28;20050;-65
2022/05/01 08:26:31;;;;;;;4.85;3.30;;;13.60;93.20;;;;;;4992098;28;20045;-64
2022/05/01 08:28:57;;;;;;;3.53;2.60;;;13.90;92.10;;;;;;4995986;28;20045;-64
2022/05/01 08:31:23;;;;;;;2.80;2.20;;;15.30;92.20;;;;;;4994360;28;20758;-64
2022/05/01 08:33:49;;;;;;;2.80;2.45;;;15.80;91.50;;;;;;4647764;28;10001291;-65
2022/05/01 08:36:14;;;;;;;2.40;2.17;;;16.80;90.80;;;;;;4991820;28;20116;-64
2022/05/01 08:38:42;;;;;;;3.53;2.40;;;17.70;90.30;;;;;;4993218;28;20115;-64
2022/05/01 08:41:09;;;;;;;3.63;2.60;;;18.00;89.30;;;;;;4997888;28;20049;-64
2022/05/01 08:43:35;;;;;;;4.60;2.75;;;18.40;86.40;;;;;;4999049;28;20045;-64
2022/05/01 08:46:13;;;;;;;3.42;2.55;;;17.70;81.90;;;;;;4998213;28;20038;-64
2022/05/01 08:49:00;;;;;;;2.67;2.47;;;17.40;80.90;;;;;;4998175;28;20038;-65
2022/05/01 08:51:30;;;;;;;2.95;2.38;;;17.20;81.70;;;;;;4994829;28;20053;-65
2022/05/01 08:53:58;;;;;;;4.30;2.70;;;16.30;85.60;;;;;;4996886;28;20513;-65
2022/05/01 08:56:24;;;;;;;4.18;3.05;;;16.00;89.50;;;;;;4998894;28;20046;-65
2022/05/01 08:58:50;;;;;;;4.53;2.70;;;15.90;90.00;;;;;;4996146;28;20888;-65
2022/05/01 09:01:17;;;;;;;4.43;3.08;;;15.40;88.20;;;;;;4999761;28;20081;-65
2022/05/01 09:03:46;;;;;;;5.53;2.80;;;15.20;88.20;;;;;;4996401;28;20820;-65
2022/05/01 09:06:12;;;;;;;3.20;2.50;;;15.10;89.40;;;;;;4997979;28;20049;-65
2022/05/01 09:08:41;;;;;;;4.03;3.63;;;15.20;89.40;;;;;;4998900;28;20580;-66
2022/05/01 09:13:52;;;;;;;3.85;3.00;;;15.00;90.10;;;;;;5000780;28;20138;-65
2022/05/01 09:16:18;;;;;;;4.43;3.25;;;15.30;89.80;;;;;;4998055;28;20045;-65
2022/05/01 09:18:45;;;;;;;4.30;2.55;;;15.30;89.00;;;;;;4996779;28;20087;-65
2022/05/01 09:21:12;;;;;;;3.20;2.70;;;15.30;87.40;;;;;;4997634;28;20952;-65
2022/05/01 09:23:43;;;;;;;2.97;2.60;;;15.10;87.70;;;;;;4993914;28;20053;-65
2022/05/01 09:26:10;;;;;;;2.30;2.08;;;15.10;86.70;;;;;;4997732;28;20053;-64
2022/05/01 09:28:46;;;;;;;3.45;2.78;;;15.70;87.60;;;;;;5003196;28;20081;-66
2022/05/01 09:31:11;;;;;;;2.58;2.30;;;16.40;87.80;;;;;;5001793;28;20053;-64
2022/05/01 09:33:37;;;;;;;3.13;2.45;;;17.10;86.90;;;;;;4998106;28;20049;-65
2022/05/01 09:36:03;;;;;;;4.35;2.35;;;17.40;85.00;;;;;;4998568;28;20033;-65
2022/05/01 09:38:28;;;;;;;2.88;2.25;;;17.40;77.80;;;;;;4996704;28;20049;-65
2022/05/01 09:41:00;;;;;;;4.20;2.22;;;17.60;83.80;;;;;;4997149;28;20041;-65
2022/05/01 09:43:42;;;;;;;3.53;3.30;;;17.90;82.50;;;;;;4997719;28;20652;-65
2022/05/01 09:46:12;;;;;;;5.20;2.47;;;18.10;79.00;;;;;;4999907;28;20055;-65
2022/05/01 09:48:38;;;;;;;2.90;2.20;;;18.30;77.80;;;;;;4998912;28;20087;-65
2022/05/01 09:51:19;;;;;;;2.28;2.03;;;18.50;81.80;;;;;;5000732;28;20056;-65
2022/05/01 09:53:46;;;;;;;3.00;1.90;;;18.60;77.80;;;;;;4999802;28;20080;-65
2022/05/01 09:56:12;;;;;;;2.42;2.22;;;18.80;81.30;;;;;;4999985;28;20830;-64
2022/05/01 09:58:40;;;;;;;2.08;1.88;;;19.00;79.20;;;;;;5002417;28;20053;-64
2022/05/01 10:01:11;;;;;;;3.35;2.13;;;18.90;76.00;;;;;;5003061;28;20057;-64
2022/05/01 10:03:43;;;;;;;3.13;1.90;;;18.80;79.40;;;;;;5007789;28;20049;-64
2022/05/01 10:06:11;;;;;;;3.33;2.30;;;18.80;78.50;;;;;;5003258;28;20046;-64
2022/05/01 10:08:38;;;;;;;3.92;2.15;;;18.80;77.20;;;;;;5004085;28;20046;-64
2022/05/01 10:11:05;;;;;;;5.10;2.40;;;19.00;77.30;;;;;;5005222;28;20576;-65
2022/05/01 10:13:33;;;;;;;4.07;2.20;;;18.80;77.70;;;;;;5000676;28;20048;-65
2022/05/01 10:16:00;;;;;;;3.55;2.13;;;18.90;77.10;;;;;;5000386;28;20099;-65
2022/05/01 10:18:26;;;;;;;3.10;2.30;;;18.80;75.70;;;;;;5002115;28;20080;-64
2022/05/01 10:20:52;;;;;;;2.55;2.20;;;18.80;74.60;;;;;;5006307;28;20067;-65
2022/05/01 10:23:18;;;;;;;2.90;2.10;;;19.20;76.80;;;;;;5008287;28;20042;-64
2022/05/01 10:25:59;;;;;;;3.45;2.80;;;19.20;76.00;;;;;;5000459;28;20049;-64
2022/05/01 10:29:20;;;;;;;2.15;1.95;;;19.40;72.20;;;;;;4998916;28;20590;-64
2022/05/01 10:35:13;;;;;;;3.00;2.60;;;19.60;70.70;;;;;;5004359;28;20060;-64
2022/05/01 10:38:10;;;;;;;5.38;2.60;;;19.40;72.40;;;;;;5005772;28;20148;-64
2022/05/01 10:40:48;;;;;;;2.60;2.38;;;18.40;71.40;;;;;;4999922;28;20046;-64
2022/05/01 10:43:29;;;;;;;2.65;2.17;;;17.60;74.50;;;;;;5005467;28;20172;-64
2022/05/01 10:46:00;;;;;;;2.78;2.38;;;17.00;74.20;;;;;;5007388;28;20395;-64
2022/05/01 10:48:37;;;;;;;2.95;2.17;;;16.40;75.00;;;;;;5000861;28;20045;-64
2022/05/01 10:51:31;;;;;;;3.33;2.50;;;16.30;77.90;;;;;;4998903;28;20513;-64
2022/05/01 10:54:19;;;;;;;2.90;2.17;;;16.30;76.90;;;;;;4999400;28;20049;-64
2022/05/01 10:56:47;;;;;;;2.58;2.17;;;16.00;74.70;;;;;;4998568;28;20758;-64
2022/05/01 10:59:30;;;;;;;2.20;2.00;;;16.10;76.30;;;;;;4999019;28;20046;-64
2022/05/01 11:02:04;;;;;;;2.08;1.88;;;16.20;76.40;;;;;;4999085;28;20036;-64
2022/05/01 11:04:43;;;;;;;2.65;2.20;;;15.90;73.90;;;;;;4997467;28;20075;-64
2022/05/01 11:07:10;;;;;;;3.67;2.13;;;15.90;77.60;;;;;;4997192;28;20046;-64
2022/05/01 11:09:37;;;;;;;2.40;2.20;;;15.90;77.80;;;;;;4994841;28;20040;-63
2022/05/01 11:12:07;;;;;;;6.25;2.45;;;16.00;76.80;;;;;;4996016;28;20188;-64
2022/05/01 11:14:41;;;;;;;2.40;2.17;;;16.20;75.20;;;;;;5000636;28;20049;-64
2022/05/01 11:17:12;;;;;;;2.15;1.63;;;16.40;75.60;;;;;;4995520;28;20048;-64
2022/05/01 11:19:45;;;;;;;2.80;1.70;;;16.40;75.60;;;;;;4995915;28;20816;-64
2022/05/01 11:22:11;;;;;;;;;;;16.40;73.10;;;;;;5002594;28;20101;-64
2022/05/01 11:24:44;;;;;;;2.92;1.70;;;16.20;72.60;;;;;;5001719;28;19930;-64
2022/05/01 11:27:14;;;;;;;2.65;1.92;;;16.20;75.90;;;;;;4995703;28;20053;-64
2022/05/01 11:30:08;;;;;;;3.22;2.33;;;16.20;75.30;;;;;;4995633;28;20104;-64
2022/05/01 11:32:44;;;;;;;3.17;2.03;;;16.00;69.80;;;;;;4995218;28;20049;-64
2022/05/01 11:35:11;;;;;;;2.88;2.13;;;16.10;72.10;;;;;;4993890;28;20659;-64
2022/05/01 11:38:07;;;;;;;2.60;2.40;;;16.20;74.40;;;;;;4993560;28;20555;-65
2022/05/01 11:40:33;;;;;;;2.20;1.70;;;16.20;73.70;;;;;;4986297;28;20060;-64
2022/05/01 11:43:19;;;;;;;3.38;2.30;;;16.30;74.90;;;;;;4993236;28;20083;-64
2022/05/01 11:45:46;;;;;;;2.17;1.98;;;16.40;71.30;;;;;;5006326;28;20046;-64
2022/05/01 11:48:17;;;;;;;2.75;2.00;;;16.20;71.10;;;;;;4996805;28;20699;-64
2022/05/01 11:50:45;;;;;;;2.42;2.08;;;16.10;73.70;;;;;;4995725;28;20034;-64
2022/05/01 11:53:23;;;;;;;2.58;1.75;;;16.30;74.80;;;;;;4994703;28;20053;-64
2022/05/01 12:04:25;;;;;;;2.15;1.90;;;17.10;73.70;;;;;;4994985;28;20061;-65
2022/05/01 12:07:29;;;;;;;3.45;1.63;;;17.30;72.30;;;;;;4995974;28;20058;-64
2022/05/01 12:09:55;;;;;;;4.03;2.00;;;17.40;73.70;;;;;;4994004;28;20145;-63
2022/05/01 12:12:26;;;;;;;2.10;1.90;;;17.10;73.20;;;;;;4996630;28;20072;-64
2022/05/01 12:14:51;;;;;;;1.70;1.60;;;17.30;73.30;;;;;;4998439;28;20068;-64
2022/05/01 12:17:19;;;;;;;2.08;1.88;;;17.30;73.20;;;;;;5002506;28;20084;-64
2022/05/01 12:19:49;;;;;;;3.20;1.92;;;17.30;70.80;;;;;;5005010;28;20120;-64
2022/05/01 12:22:16;;;;;;;2.55;2.35;;;17.20;71.60;;;;;;4999644;28;20506;-64
2022/05/01 12:24:43;;;;;;;2.22;1.90;;;17.10;69.00;;;;;;4999849;28;20052;-65
2022/05/01 12:27:10;;;;;;;3.20;2.15;;;16.80;72.00;;;;;;4999924;28;20076;-64
2022/05/01 12:29:37;;;;;;;2.35;2.08;;;16.90;73.80;;;;;;4998011;28;20049;-64
2022/05/01 12:32:11;;;;;;;1.90;1.70;;;16.60;74.30;;;;;;5002014;28;20046;-64
2022/05/01 12:34:52;;;;;;;2.60;2.40;;;16.60;73.70;;;;;;4999138;28;20053;-64
2022/05/01 12:37:34;;;;;;;3.17;2.05;;;16.40;73.50;;;;;;4999914;28;20058;-64
2022/05/01 12:40:12;;;;;;;2.55;2.08;;;16.20;74.80;;;;;;4997896;28;20046;-64
2022/05/01 12:45:40;;;;;;;3.03;2.00;;;15.70;75.60;;;;;;4998855;28;20055;-64
2022/05/01 12:48:07;;;;;;;3.42;2.05;;;15.30;76.80;;;;;;4999936;28;20049;-64
2022/05/01 12:50:35;;;;;;;3.80;2.10;;;15.30;77.90;;;;;;4994295;28;20037;-64
2022/05/01 12:53:19;;;;;;;3.28;2.25;;;15.50;77.60;;;;;;4996351;28;20049;-64
2022/05/01 12:55:45;;;;;;;2.75;2.10;;;15.70;77.80;;;;;;4995734;28;20156;-64
2022/05/01 12:58:11;;;;;;;3.63;2.35;;;15.60;75.80;;;;;;4992830;28;20041;-64
2022/05/01 13:00:39;;;;;;;2.60;2.10;;;15.60;76.40;;;;;;4995316;28;20275;-64
2022/05/01 13:03:14;;;;;;;2.75;2.17;;;15.60;77.00;;;;;;4995235;28;20154;-64
2022/05/01 13:05:41;;;;;;;3.58;2.10;;;15.70;76.50;;;;;;4994850;28;20107;-64
2022/05/01 13:08:19;;;;;;;2.78;2.20;;;15.70;77.40;;;;;;4995219;28;20160;-64
2022/05/01 13:11:13;;;;;;;2.50;2.08;;;15.50;76.40;;;;;;4996839;28;20064;-64
2022/05/01 13:14:00;;;;;;;3.47;1.92;;;15.50;75.90;;;;;;4993551;28;20050;-64
2022/05/01 13:16:32;;;;;;;2.65;2.28;;;15.50;76.80;;;;;;4995212;28;20084;-63
2022/05/01 13:19:08;;;;;;;2.13;1.92;;;15.40;77.40;;;;;;4996389;28;20048;-64
2022/05/01 13:21:45;;;;;;;2.65;2.22;;;15.50;77.40;;;;;;4995649;28;20041;-64
2022/05/01 13:24:22;;;;;;;3.35;2.58;;;15.40;76.50;;;;;;4997474;28;21975;-64
2022/05/01 13:26:47;;;;;;;3.20;2.08;;;15.20;75.70;;;;;;4995149;28;20076;-64
2022/05/01 13:29:14;;;;;;;2.17;1.98;;;15.10;77.00;;;;;;4996446;28;20612;-64
2022/05/01 13:31:41;;;;;;;3.78;2.30;;;15.00;78.10;;;;;;4994096;28;20053;-64
2022/05/01 13:34:08;;;;;;;3.13;2.22;;;14.90;77.30;;;;;;4996071;28;20508;-64
2022/05/01 13:36:34;;;;;;;4.80;1.88;;;14.80;77.40;;;;;;4996936;28;20083;-64
2022/05/01 13:39:03;;;;;;;4.10;2.08;;;14.90;77.70;;;;;;4997624;28;20041;-64
2022/05/01 13:46:59;;;;;;;2.22;2.00;;;15.00;77.10;;;;;;4997244;28;20052;-64